Time;durP1;ratioP1;P1;durP2;ratioP2;P2;SDS_P1;SDS_P2;PMS_P1;PMS_P2;Temp;Humidity;BMP_temperature;BMP_pressure;BME280_temperature;BME280_humidity;BME280_pressure;Samples;Min_cycle;Max_cycle;Signal;HPM_P1;HPM_P2
2023/03/25 00:02:19;;;;;;;4.15;3.85;;;;;;;8.22;100.00;99958.66;6094601;23;20089;-74
2023/03/25 00:04:53;;;;;;;4.00;3.80;;;;;;;7.67;100.00;99877.13;6149273;23;20030;-74
2023/03/25 00:07:20;;;;;;;7.50;3.83;;;;;;;7.79;100.00;99909.56;6142093;23;20111;-74
2023/03/25 00:09:47;;;;;;;3.50;3.40;;;;;;;7.28;100.00;99843.53;6153216;23;20422;-75
2023/03/25 00:12:15;;;;;;;3.90;3.70;;;;;;;7.37;100.00;99840.41;6138975;23;20535;-76
2023/03/25 00:14:53;;;;;;;3.65;3.55;;;;;;;7.75;100.00;99903.66;6157119;23;20020;-76
2023/03/25 00:17:21;;;;;;;3.80;3.70;;;;;;;7.56;100.00;99877.69;6143177;23;20028;-75
2023/03/25 00:19:50;;;;;;;5.88;3.95;;;;;;;7.62;100.00;99879.16;6153613;23;20535;-75
2023/03/25 00:22:18;;;;;;;4.20;4.00;;;;;;;7.65;100.00;99886.81;6142352;23;20021;-75
2023/03/25 00:24:44;;;;;;;4.15;3.85;;;;;;;7.74;100.00;99919.44;6150507;23;20021;-76
2023/03/25 00:27:16;;;;;;;4.18;3.97;;;;;;;7.64;100.00;99872.06;6139409;23;20029;-76
2023/03/25 00:29:45;;;;;;;3.90;3.78;;;;;;;7.74;100.00;99893.31;6118177;23;20037;-75
2023/03/25 00:32:14;;;;;;;4.05;3.85;;;;;;;7.04;100.00;99752.56;6149460;23;20092;-77
2023/03/25 00:34:46;;;;;;;4.40;4.20;;;;;;;8.29;100.00;99941.75;6119816;23;20037;-77
2023/03/25 00:37:17;;;;;;;3.88;3.70;;;;;;;8.36;100.00;99941.31;6153515;23;20083;-73
2023/03/25 00:39:44;;;;;;;4.60;3.67;;;;;;;8.41;100.00;99938.47;6116691;23;20079;-76
2023/03/25 00:42:12;;;;;;;4.45;4.18;;;;;;;7.23;100.00;99739.38;6118763;23;20587;-74
2023/03/25 00:44:39;;;;;;;5.43;3.90;;;;;;;8.48;100.00;99938.97;6156906;23;20024;-74
2023/03/25 00:47:06;;;;;;;9.90;3.95;;;;;;;8.18;100.00;99872.59;6142915;23;20483;-74
2023/03/25 00:49:32;;;;;;;3.88;3.70;;;;;;;8.04;100.00;99837.69;6156610;23;20033;-74
2023/03/25 00:51:59;;;;;;;4.20;4.00;;;;;;;8.57;100.00;99938.47;6097521;23;20029;-75
2023/03/25 00:54:25;;;;;;;3.70;3.55;;;;;;;8.58;100.00;99921.88;6155013;23;20095;-76
2023/03/25 00:56:52;;;;;;;4.00;3.80;;;;;;;8.63;100.00;99914.59;6116557;23;20145;-74
2023/03/25 00:59:18;;;;;;;4.25;3.83;;;;;;;8.42;100.00;99887.88;6152807;23;20041;-75
2023/03/25 01:01:47;;;;;;;3.70;3.60;;;;;;;8.25;100.00;99849.56;6126285;23;20023;-77
2023/03/25 01:04:15;;;;;;;4.05;3.85;;;;;;;8.40;100.00;99889.72;6112904;23;20477;-75
2023/03/25 01:06:43;;;;;;;3.90;3.72;;;;;;;8.22;100.00;99834.06;6091344;23;20041;-76
2023/03/25 01:09:12;;;;;;;3.70;3.60;;;;;;;8.53;100.00;99868.97;6125585;23;20028;-75
2023/03/25 01:11:41;;;;;;;3.60;3.50;;;;;;;7.69;100.00;99756.91;6118835;23;20654;-74
2023/03/25 01:14:13;;;;;;;4.03;3.83;;;;;;;8.48;100.00;99884.91;6152839;23;20407;-75
2023/03/25 01:16:40;;;;;;;4.07;3.85;;;;;;;8.17;100.00;99820.41;6143224;23;20027;-74
2023/03/25 01:19:06;;;;;;;3.95;3.78;;;;;;;8.40;100.00;99853.09;6147163;23;20094;-75
2023/03/25 01:21:35;;;;;;;4.35;4.05;;;;;;;8.25;100.00;99823.44;6115464;23;20409;-74
2023/03/25 01:24:06;;;;;;;4.40;3.90;;;;;;;8.54;100.00;99883.75;6141658;23;20581;-75
2023/03/25 01:26:33;;;;;;;3.60;3.50;;;;;;;8.35;100.00;99845.50;6143120;23;20066;-73
2023/03/25 01:28:59;;;;;;;4.18;3.90;;;;;;;8.12;100.00;99822.47;6127796;23;20625;-74
2023/03/25 01:31:28;;;;;;;4.00;3.80;;;;;;;8.40;100.00;99866.19;6141722;23;20019;-74
2023/03/25 01:33:56;;;;;;;6.47;3.90;;;;;;;8.48;100.00;99878.81;6111495;23;20014;-74
2023/03/25 01:36:24;;;;;;;3.70;3.58;;;;;;;8.17;100.00;99838.72;6140557;23;20013;-75
2023/03/25 01:38:51;;;;;;;3.60;3.50;;;;;;;7.08;100.00;99660.16;6150009;23;20391;-74
2023/03/25 01:41:17;;;;;;;3.80;3.67;;;;;;;8.09;100.00;99822.63;6086803;23;20002;-73
2023/03/25 01:44:28;;;;;;;3.92;3.72;;;;;;;8.48;100.00;99870.97;6149412;23;20486;-74
2023/03/25 01:47:00;;;;;;;6.55;3.70;;;;;;;7.61;100.00;99736.44;6110265;23;20017;-74
2023/03/25 01:49:32;;;;;;;3.90;3.70;;;;;;;8.01;100.00;99809.97;6140454;23;20023;-76
2023/03/25 01:52:05;;;;;;;4.10;3.90;;;;;;;7.73;100.00;99780.16;6152662;23;20458;-74
2023/03/25 01:54:32;;;;;;;3.60;3.50;;;;;;;7.72;100.00;99794.16;6139768;23;20029;-73
2023/03/25 01:56:58;;;;;;;4.20;4.00;;;;;;;7.41;100.00;99742.75;6152446;23;20146;-74
2023/03/25 01:59:27;;;;;;;3.63;3.53;;;;;;;7.68;100.00;99804.84;6115266;23;20035;-76
2023/03/25 02:01:57;;;;;;;4.50;4.20;;;;;;;8.15;100.00;99880.59;6113610;23;20623;-76
2023/03/25 02:04:33;;;;;;;4.45;4.10;;;;;;;7.94;100.00;99850.44;6136778;23;20580;-78
2023/03/25 02:07:00;;;;;;;3.95;3.75;;;;;;;7.93;100.00;99854.81;6148741;23;20021;-76
2023/03/25 02:09:27;;;;;;;6.65;4.10;;;;;;;7.92;100.00;99865.38;6111383;23;20026;-77
2023/03/25 02:11:54;;;;;;;4.22;3.92;;;;;;;6.75;100.00;99684.50;6152610;23;20033;-76
2023/03/25 02:14:27;;;;;;;3.70;3.60;;;;;;;7.42;100.00;99804.50;6141278;23;20581;-76
2023/03/25 02:17:02;;;;;;;3.80;3.70;;;;;;;7.86;100.00;99897.00;6149005;23;20076;-77
2023/03/25 02:20:08;;;;;;;3.60;3.50;;;;;;;7.12;100.00;99781.69;6139917;23;20045;-77
2023/03/25 02:22:53;;;;;;;3.40;3.30;;;;;;;7.90;100.00;99902.00;6097375;23;20024;-74
2023/03/25 02:25:34;;;;;;;3.95;3.75;;;;;;;7.78;100.00;99884.41;6153725;23;20093;-75
2023/03/25 02:28:24;;;;;;;4.45;4.15;;;;;;;7.98;100.00;99894.59;6138756;23;20464;-75
2023/03/25 02:31:48;;;;;;;3.75;3.50;;;;;;;7.95;100.00;99892.16;6151361;23;20102;-77
2023/03/25 02:34:17;;;;;;;;;;;;;;;8.05;100.00;99894.28;6048972;23;20021;-75
2023/03/25 02:37:09;;;;;;;3.42;3.33;;;;;;;8.08;100.00;99905.41;6044703;23;19910;-76
2023/03/25 02:39:42;;;;;;;3.42;3.33;;;;;;;7.88;100.00;99866.47;6108265;23;20243;-78
2023/03/25 02:42:22;;;;;;;3.60;3.50;;;;;;;7.90;100.00;99882.91;6127890;23;20037;-75
2023/03/25 02:45:01;;;;;;;3.53;3.42;;;;;;;8.06;100.00;99909.88;6139136;23;20029;-75
2023/03/25 02:47:39;;;;;;;3.72;3.63;;;;;;;6.73;100.00;99699.38;6090781;23;20025;-75
2023/03/25 02:50:13;;;;;;;3.50;3.40;;;;;;;7.80;100.00;99864.25;6145316;23;20036;-74
2023/03/25 02:52:46;;;;;;;4.15;3.70;;;;;;;7.50;100.00;99823.19;6119551;23;20010;-74
2023/03/25 02:55:16;;;;;;;15.63;3.80;;;;;;;7.06;100.00;99752.50;6114959;23;20462;-76
2023/03/25 02:57:46;;;;;;;3.60;3.40;;;;;;;8.12;100.00;99921.75;6155035;23;20021;-74
2023/03/25 03:00:17;;;;;;;3.55;3.42;;;;;;;8.15;100.00;99917.19;6144392;23;20549;-76
2023/03/25 03:02:52;;;;;;;3.58;3.47;;;;;;;7.99;100.00;99880.59;6130324;23;20416;-74
2023/03/25 03:05:42;;;;;;;4.00;3.80;;;;;;;8.16;100.00;99899.75;6119123;23;20045;-74
2023/03/25 03:08:37;;;;;;;3.70;3.50;;;;;;;7.89;100.00;99861.13;6136140;23;20016;-75
2023/03/25 03:11:28;;;;;;;4.15;3.83;;;;;;;8.19;100.00;99902.19;6119866;23;20029;-75
2023/03/25 03:14:10;;;;;;;3.67;3.50;;;;;;;8.22;100.00;99917.72;6144136;23;20115;-73
2023/03/25 03:16:57;;;;;;;5.13;3.80;;;;;;;8.26;100.00;99890.47;6151902;23;20043;-77
2023/03/25 03:19:37;;;;;;;4.25;4.05;;;;;;;7.04;100.00;99676.06;6102006;23;20838;-77
2023/03/25 03:22:39;;;;;;;3.97;3.67;;;;;;;8.32;100.00;99884.06;6146424;23;20009;-78
2023/03/25 03:25:21;;;;;;;3.65;3.50;;;;;;;8.34;100.00;99880.44;6143171;23;20044;-76
2023/03/25 03:27:58;;;;;;;3.72;3.63;;;;;;;8.32;100.00;99886.69;6144925;23;20048;-75
2023/03/25 03:30:37;;;;;;;6.45;4.25;;;;;;;7.57;100.00;99768.88;6153957;23;20013;-76
2023/03/25 03:33:14;;;;;;;4.65;4.35;;;;;;;8.28;100.00;99883.41;6118829;23;20136;-76
2023/03/25 03:36:06;;;;;;;3.80;3.60;;;;;;;7.07;100.00;99728.06;6143984;23;20052;-75
2023/03/25 03:38:41;;;;;;;3.47;3.38;;;;;;;7.66;100.00;99784.03;6140638;23;20025;-75
2023/03/25 03:41:15;;;;;;;3.92;3.72;;;;;;;7.10;100.00;99712.28;6114332;23;20029;-76
2023/03/25 03:43:57;;;;;;;3.70;3.60;;;;;;;7.65;100.00;99807.63;6140393;23;20424;-75
2023/03/25 03:46:30;;;;;;;3.70;3.60;;;;;;;7.91;100.00;99841.00;6154163;23;20260;-74
2023/03/25 03:49:00;;;;;;;4.38;3.70;;;;;;;7.86;100.00;99856.09;6091566;23;20056;-75
2023/03/25 03:51:35;;;;;;;9.70;4.28;;;;;;;7.96;100.00;99856.44;6150613;23;20008;-77
2023/03/25 03:54:27;;;;;;;3.80;3.60;;;;;;;7.67;100.00;99817.06;6141018;23;20065;-75
2023/03/25 03:57:01;;;;;;;4.28;4.03;;;;;;;8.22;100.00;99901.16;6149761;23;20036;-76
2023/03/25 04:00:05;;;;;;;6.20;3.80;;;;;;;7.09;100.00;99715.78;6111323;23;20048;-77
2023/03/25 04:02:46;;;;;;;3.70;3.60;;;;;;;8.03;100.00;99878.66;6105888;23;20198;-76
2023/03/25 04:05:15;;;;;;;9.75;3.95;;;;;;;8.01;100.00;99857.00;6141501;23;20111;-75
2023/03/25 04:08:01;;;;;;;4.05;3.85;;;;;;;6.99;100.00;99699.78;6142586;23;20141;-76
2023/03/25 04:10:41;;;;;;;4.22;3.80;;;;;;;8.17;100.00;99889.19;6142674;23;20642;-76
2023/03/25 04:13:12;;;;;;;4.40;4.00;;;;;;;7.38;100.00;99769.88;6131899;23;20025;-75
2023/03/25 04:15:40;;;;;;;3.75;3.55;;;;;;;7.67;100.00;99835.34;6120497;23;20044;-75
2023/03/25 04:18:07;;;;;;;3.70;3.60;;;;;;;7.71;100.00;99833.41;6149800;23;20084;-77
2023/03/25 04:20:35;;;;;;;4.03;3.83;;;;;;;7.75;100.00;99845.38;6143599;23;20029;-75
2023/03/25 04:23:08;;;;;;;3.75;3.60;;;;;;;8.07;100.00;99890.63;6112107;23;20025;-75
2023/03/25 04:25:35;;;;;;;3.50;3.40;;;;;;;7.62;100.00;99808.63;6116705;23;20496;-76
2023/03/25 04:28:01;;;;;;;7.65;4.00;;;;;;;8.15;100.00;99879.75;6113800;23;20017;-76
2023/03/25 04:30:28;;;;;;;4.35;4.15;;;;;;;8.22;100.00;99880.25;6143325;23;20053;-76
2023/03/25 04:32:55;;;;;;;3.60;3.50;;;;;;;7.80;100.00;99801.56;6150466;23;20138;-76
2023/03/25 04:35:21;;;;;;;4.20;4.00;;;;;;;7.29;100.00;99706.88;6114144;23;20031;-76
2023/03/25 04:37:48;;;;;;;3.53;3.42;;;;;;;7.43;100.00;99729.63;6136228;23;20065;-77
2023/03/25 04:40:17;;;;;;;3.70;3.50;;;;;;;8.21;100.00;99842.84;6131498;23;20110;-76
2023/03/25 04:42:47;;;;;;;3.80;3.50;;;;;;;8.23;100.00;99829.69;6139311;23;20026;-76
2023/03/25 04:45:15;;;;;;;6.93;3.90;;;;;;;8.27;99.81;99854.72;6149016;23;20029;-76
2023/03/25 04:47:45;;;;;;;3.95;3.75;;;;;;;7.75;99.35;99767.84;6139977;23;20727;-76
2023/03/25 04:50:25;;;;;;;4.00;3.70;;;;;;;8.06;99.42;99823.63;6120146;23;20033;-75
2023/03/25 04:52:52;;;;;;;7.18;4.00;;;;;;;6.96;99.99;99659.06;6139789;23;20251;-75
2023/03/25 04:55:21;;;;;;;4.00;3.70;;;;;;;8.07;99.58;99812.25;6150995;23;20475;-75
2023/03/25 04:57:50;;;;;;;3.50;3.40;;;;;;;8.26;100.00;99858.25;6144397;23;20011;-75
2023/03/25 05:00:22;;;;;;;4.63;3.55;;;;;;;8.27;100.00;99842.50;6152496;23;20439;-74
2023/03/25 05:02:50;;;;;;;;;;;;;;;8.29;99.70;99856.31;6111567;23;20024;-75
2023/03/25 05:05:20;;;;;;;4.03;3.83;;;;;;;7.62;100.00;99751.19;6128839;23;19940;-74
2023/03/25 05:07:48;;;;;;;3.72;3.63;;;;;;;8.06;100.00;99831.47;6140460;23;20023;-76
2023/03/25 05:10:16;;;;;;;6.28;4.30;;;;;;;8.27;100.00;99841.66;6114076;23;20511;-75
2023/03/25 05:12:42;;;;;;;3.83;3.63;;;;;;;8.17;100.00;99838.72;6142327;23;20558;-77
2023/03/25 05:15:11;;;;;;;8.98;3.53;;;;;;;8.02;100.00;99810.81;6126280;23;20025;-76
2023/03/25 05:17:37;;;;;;;3.47;3.35;;;;;;;7.44;99.54;99705.19;6137531;23;20021;-76
2023/03/25 05:20:07;;;;;;;3.70;3.53;;;;;;;7.70;100.00;99751.59;6115183;23;20586;-75
2023/03/25 05:22:34;;;;;;;15.02;14.10;;;;;;;8.14;100.00;99836.28;6104847;23;20455;-75
2023/03/25 05:25:01;;;;;;;6.72;3.40;;;;;;;8.14;100.00;99841.50;6067011;23;20033;-75
2023/03/25 05:27:29;;;;;;;3.55;3.45;;;;;;;7.73;100.00;99801.03;6121119;23;20088;-75
2023/03/25 05:29:59;;;;;;;6.00;3.65;;;;;;;7.87;100.00;99830.81;6157276;23;20041;-76
2023/03/25 05:32:34;;;;;;;4.15;3.95;;;;;;;6.79;100.00;99673.03;6093394;23;20013;-72
2023/03/25 05:35:03;;;;;;;10.35;3.58;;;;;;;8.21;100.00;99884.66;6151728;23;20673;-71
2023/03/25 05:37:30;;;;;;;3.58;3.47;;;;;;;7.67;100.00;99798.78;6140155;23;20033;-70
2023/03/25 05:39:56;;;;;;;4.47;3.78;;;;;;;7.84;100.00;99839.66;6153135;23;20031;-71
2023/03/25 05:42:23;;;;;;;4.55;3.60;;;;;;;8.23;100.00;99884.56;6143570;23;20615;-72
2023/03/25 05:44:53;;;;;;;3.40;3.30;;;;;;;8.28;100.00;99882.53;6152826;23;20032;-71
2023/03/25 05:47:22;;;;;;;3.60;3.50;;;;;;;8.15;100.00;99869.31;6140241;23;20024;-72
2023/03/25 05:49:52;;;;;;;3.97;3.40;;;;;;;7.88;100.00;99828.09;6145093;23;20027;-72
2023/03/25 05:52:23;;;;;;;3.25;3.15;;;;;;;8.26;100.00;99887.88;6142659;23;20017;-72
2023/03/25 05:54:50;;;;;;;3.97;3.67;;;;;;;8.27;100.00;99883.47;6150509;23;20792;-72
2023/03/25 05:57:17;;;;;;;4.82;4.40;;;;;;;8.29;100.00;99902.53;6112047;23;20044;-72
2023/03/25 05:59:46;;;;;;;3.50;3.40;;;;;;;7.79;100.00;99828.59;6150228;23;20032;-72
2023/03/25 06:02:15;;;;;;;3.72;3.53;;;;;;;7.85;100.00;99833.50;6137569;23;20039;-72
2023/03/25 06:04:42;;;;;;;4.05;3.70;;;;;;;8.33;100.00;99899.66;6162099;23;20048;-71
2023/03/25 06:07:13;;;;;;;11.00;3.60;;;;;;;7.97;100.00;99852.88;6136783;23;20017;-71
2023/03/25 06:09:44;;;;;;;6.68;4.22;;;;;;;8.05;100.00;99842.00;6154094;23;20096;-71
2023/03/25 06:12:13;;;;;;;3.67;3.47;;;;;;;8.24;100.00;99874.03;6114221;23;20443;-72
2023/03/25 06:14:41;;;;;;;3.67;3.47;;;;;;;8.21;100.00;99879.41;6139225;23;20045;-71
2023/03/25 06:17:09;;;;;;;3.53;3.42;;;;;;;7.83;100.00;99827.50;6152671;23;20083;-72
2023/03/25 06:19:39;;;;;;;3.55;3.38;;;;;;;8.26;100.00;99913.13;6143588;23;20561;-72
2023/03/25 06:22:10;;;;;;;4.15;3.88;;;;;;;8.25;100.00;99932.38;6112371;23;20028;-72
2023/03/25 06:24:40;;;;;;;7.13;3.88;;;;;;;7.82;100.00;99880.69;6140449;23;20108;-71
2023/03/25 06:27:17;;;;;;;4.00;3.70;;;;;;;8.04;100.00;99935.25;6154001;23;20547;-72
2023/03/25 06:29:44;;;;;;;3.50;3.40;;;;;;;8.03;100.00;99948.38;6139395;23;20036;-72
2023/03/25 06:32:13;;;;;;;3.60;3.50;;;;;;;7.99;100.00;99953.75;6147713;23;20035;-73
2023/03/25 06:34:41;;;;;;;3.40;3.30;;;;;;;7.87;100.00;99945.75;6141131;23;20021;-72
2023/03/25 06:37:08;;;;;;;4.07;3.83;;;;;;;8.07;100.00;99970.81;6124731;23;20028;-71
2023/03/25 06:39:38;;;;;;;3.42;3.33;;;;;;;8.05;100.00;99977.88;6135798;23;20040;-72
2023/03/25 06:42:06;;;;;;;3.83;3.63;;;;;;;7.57;100.00;99905.47;6110840;23;20026;-73
2023/03/25 06:44:32;;;;;;;4.03;3.50;;;;;;;7.92;100.00;99978.53;6141562;23;20044;-72
2023/03/25 06:47:01;;;;;;;4.07;3.65;;;;;;;7.82;100.00;99966.88;6125426;23;20025;-72
2023/03/25 06:49:28;;;;;;;3.92;3.72;;;;;;;7.69;100.00;99947.56;6115502;23;20114;-72
2023/03/25 06:51:54;;;;;;;7.43;4.45;;;;;;;7.98;100.00;99967.75;6150146;23;20016;-71
2023/03/25 06:54:21;;;;;;;8.45;3.72;;;;;;;7.56;100.00;99895.97;6140787;23;20027;-70
2023/03/25 06:56:48;;;;;;;4.03;3.83;;;;;;;8.08;100.00;99988.16;6127495;23;20079;-70
2023/03/25 06:59:14;;;;;;;4.00;3.70;;;;;;;7.99;100.00;99943.31;6139645;23;20074;-70
2023/03/25 07:01:41;;;;;;;3.47;3.38;;;;;;;7.81;100.00;99901.66;6146836;23;20088;-70
2023/03/25 07:04:08;;;;;;;3.88;3.67;;;;;;;7.20;100.00;99838.72;6139310;23;20029;-71
2023/03/25 07:06:34;;;;;;;6.40;4.00;;;;;;;7.91;100.00;99897.63;6145981;23;20064;-70
2023/03/25 07:09:01;;;;;;;14.50;3.75;;;;;;;8.09;100.00;99927.16;6141295;23;20092;-70
2023/03/25 07:11:29;;;;;;;4.10;3.90;;;;;;;8.01;100.00;99888.38;6144351;23;20076;-70
2023/03/25 07:13:55;;;;;;;4.55;4.15;;;;;;;8.13;100.00;99886.84;6139412;23;20545;-70
2023/03/25 07:16:22;;;;;;;3.80;3.60;;;;;;;8.57;100.00;99943.69;6146535;23;20466;-72
2023/03/25 07:18:50;;;;;;;4.00;3.70;;;;;;;8.67;100.00;99947.47;6140792;23;20086;-70
2023/03/25 07:21:17;;;;;;;3.80;3.70;;;;;;;8.20;100.00;99841.16;6108566;23;20036;-69
2023/03/25 07:23:44;;;;;;;7.43;3.67;;;;;;;8.98;100.00;99949.22;6137350;23;20041;-70
2023/03/25 07:26:12;;;;;;;3.88;3.67;;;;;;;8.67;100.00;99886.50;6100623;23;20017;-70
2023/03/25 07:28:39;;;;;;;3.65;3.55;;;;;;;8.77;100.00;99893.69;6117462;23;20436;-70
2023/03/25 07:31:11;;;;;;;3.80;3.60;;;;;;;8.86;100.00;99904.56;6153904;23;20415;-71
2023/03/25 07:33:38;;;;;;;3.60;3.43;;;;;;;8.99;100.00;99923.88;6136939;23;20063;-70
2023/03/25 07:36:06;;;;;;;3.92;3.72;;;;;;;9.04;100.00;99932.31;6100572;23;20040;-70
2023/03/25 07:38:33;;;;;;;3.75;3.60;;;;;;;9.08;100.00;99939.06;6143467;23;20029;-69
2023/03/25 07:41:07;;;;;;;6.20;3.67;;;;;;;9.10;100.00;99936.31;6111842;23;20017;-69
2023/03/25 07:43:34;;;;;;;4.00;3.75;;;;;;;9.12;100.00;99935.31;6145943;23;20090;-70
2023/03/25 07:46:00;;;;;;;4.30;4.00;;;;;;;9.13;100.00;99925.69;6119450;23;20029;-70
2023/03/25 07:48:27;;;;;;;5.82;4.78;;;;;;;9.08;100.00;99925.09;6142388;23;20032;-70
2023/03/25 07:50:56;;;;;;;4.10;3.90;;;;;;;9.11;100.00;99925.78;6148756;23;20036;-70
2023/03/25 07:53:23;;;;;;;4.97;4.30;;;;;;;9.01;100.00;99924.63;6143432;23;20092;-69
2023/03/25 07:55:50;;;;;;;4.22;3.92;;;;;;;8.99;100.00;99929.09;6151199;23;20020;-71
2023/03/25 07:58:18;;;;;;;4.93;4.45;;;;;;;8.98;100.00;99930.06;6116687;23;20078;-69
2023/03/25 08:00:45;;;;;;;4.25;3.90;;;;;;;8.97;100.00;99936.19;6155021;23;20029;-70
2023/03/25 08:03:12;;;;;;;4.20;4.00;;;;;;;8.38;100.00;99858.41;6140728;23;20027;-71
2023/03/25 08:05:45;;;;;;;6.80;4.32;;;;;;;8.68;100.00;99898.63;6149633;23;20078;-70
2023/03/25 08:08:11;;;;;;;;;;;;;;;9.05;100.00;99933.97;6142762;23;20028;-70
2023/03/25 08:10:38;;;;;;;3.20;3.10;;;;;;;9.24;99.49;99932.91;6155282;23;20592;-70
2023/03/25 08:13:04;;;;;;;4.32;3.72;;;;;;;9.38;97.21;99931.16;6142336;23;20038;-70
2023/03/25 08:15:31;;;;;;;4.50;4.20;;;;;;;8.37;94.52;99741.69;6157792;23;20868;-70
2023/03/25 08:17:57;;;;;;;4.07;3.88;;;;;;;9.05;93.21;99834.53;6144049;23;20025;-70
2023/03/25 08:20:24;;;;;;;4.07;3.88;;;;;;;9.51;91.91;99876.25;6153450;23;20037;-70
2023/03/25 08:22:51;;;;;;;6.47;3.80;;;;;;;9.58;91.51;99847.91;6093372;23;20017;-71
2023/03/25 08:25:17;;;;;;;4.95;3.97;;;;;;;9.65;89.53;99848.38;6120405;23;20013;-70
2023/03/25 08:27:44;;;;;;;8.65;3.65;;;;;;;9.50;89.32;99830.06;6125943;23;20073;-70
2023/03/25 08:30:11;;;;;;;4.00;3.80;;;;;;;9.50;88.92;99816.97;6146003;23;20024;-70
2023/03/25 08:32:39;;;;;;;10.15;4.25;;;;;;;9.45;89.33;99839.97;6126779;23;20025;-72
2023/03/25 08:35:06;;;;;;;5.10;3.90;;;;;;;9.85;89.04;99892.53;6112730;23;20024;-71
2023/03/25 08:37:34;;;;;;;4.20;3.85;;;;;;;9.91;89.51;99909.66;6113348;23;20084;-71
2023/03/25 08:40:05;;;;;;;3.90;3.70;;;;;;;9.40;88.52;99797.50;6123127;23;20032;-71
2023/03/25 08:42:34;;;;;;;4.57;4.00;;;;;;;9.89;87.80;99870.44;6149967;23;20498;-70
2023/03/25 08:45:02;;;;;;;4.60;4.05;;;;;;;9.64;85.43;99792.53;6142548;23;20037;-70
2023/03/25 08:47:29;;;;;;;4.28;4.07;;;;;;;10.10;85.62;99878.75;6114260;23;20013;-69
2023/03/25 08:49:58;;;;;;;3.95;3.75;;;;;;;9.93;85.04;99858.81;6116136;23;20025;-70
2023/03/25 08:52:24;;;;;;;6.25;4.20;;;;;;;9.95;85.12;99863.97;6142493;23;20023;-70
2023/03/25 08:54:51;;;;;;;8.95;4.78;;;;;;;9.97;85.12;99854.22;6150629;23;20365;-70
2023/03/25 08:57:17;;;;;;;4.30;4.00;;;;;;;9.85;84.36;99828.81;6140106;23;20029;-71
2023/03/25 08:59:44;;;;;;;3.90;3.67;;;;;;;9.16;83.67;99692.50;6152312;23;20513;-71
2023/03/25 09:02:11;;;;;;;5.72;4.55;;;;;;;10.33;83.86;99864.16;6141129;23;20029;-72
2023/03/25 09:04:38;;;;;;;9.35;5.18;;;;;;;10.36;83.04;99858.75;6153026;23;20032;-71
2023/03/25 09:07:09;;;;;;;5.28;4.43;;;;;;;10.50;82.17;99864.84;6118737;23;20110;-70
2023/03/25 09:09:39;;;;;;;4.70;4.30;;;;;;;10.69;80.91;99852.22;6151185;23;20439;-72
2023/03/25 09:12:06;;;;;;;5.15;4.82;;;;;;;10.75;79.97;99817.69;6115403;23;20022;-72
2023/03/25 09:14:33;;;;;;;7.72;4.35;;;;;;;10.90;78.29;99802.69;6132131;23;20618;-70
2023/03/25 09:16:59;;;;;;;5.10;4.68;;;;;;;10.82;76.43;99780.53;6145187;23;20037;-70
2023/03/25 09:19:26;;;;;;;4.25;4.05;;;;;;;10.81;77.96;99792.00;6081363;23;20072;-69
2023/03/25 09:21:53;;;;;;;4.07;3.88;;;;;;;10.07;77.55;99695.41;6146671;23;20080;-70
2023/03/25 09:24:21;;;;;;;4.75;4.10;;;;;;;9.67;77.68;99637.75;6135324;23;20029;-70
2023/03/25 09:26:48;;;;;;;4.20;4.00;;;;;;;10.29;77.29;99747.28;6124220;23;20020;-70
2023/03/25 09:29:14;;;;;;;7.47;4.63;;;;;;;9.94;76.50;99673.56;6140536;23;20024;-70
2023/03/25 09:31:41;;;;;;;5.20;4.80;;;;;;;10.54;77.91;99780.63;6147862;23;20041;-70
2023/03/25 09:34:08;;;;;;;4.43;4.20;;;;;;;10.46;76.55;99742.72;6115548;23;20017;-71
2023/03/25 09:36:34;;;;;;;5.03;3.90;;;;;;;10.40;76.23;99691.50;6124577;23;20538;-71
2023/03/25 09:39:00;;;;;;;4.15;3.95;;;;;;;10.86;74.71;99742.63;6142462;23;20017;-71
2023/03/25 09:42:04;;;;;;;8.10;4.18;;;;;;;10.90;73.71;99729.19;6087070;23;20005;-71
2023/03/25 09:44:47;;;;;;;4.45;4.05;;;;;;;10.72;74.84;99731.31;6115396;23;20105;-71
2023/03/25 09:47:15;;;;;;;4.30;4.10;;;;;;;10.67;74.76;99733.41;6083946;23;20087;-71
2023/03/25 09:49:45;;;;;;;4.93;4.50;;;;;;;10.90;75.68;99762.47;6140152;23;20227;-70
2023/03/25 09:52:19;;;;;;;4.47;4.28;;;;;;;10.85;74.50;99726.06;6146442;23;20050;-70
2023/03/25 09:54:51;;;;;;;14.38;4.60;;;;;;;10.71;74.33;99700.75;6142781;23;20029;-70
2023/03/25 09:57:25;;;;;;;4.40;4.05;;;;;;;10.84;74.39;99734.84;6145515;23;20180;-70
2023/03/25 09:59:53;;;;;;;4.60;4.15;;;;;;;10.69;75.45;99722.81;6114031;23;20066;-70
2023/03/25 10:02:51;;;;;;;3.97;3.78;;;;;;;10.64;74.72;99691.59;6158950;23;20039;-71
2023/03/25 10:05:59;;;;;;;4.93;4.63;;;;;;;11.23;73.70;99729.59;6144554;23;20236;-71
2023/03/25 10:09:03;;;;;;;4.30;3.95;;;;;;;11.01;73.46;99704.00;6050189;23;20234;-71
2023/03/25 10:11:57;;;;;;;5.15;4.85;;;;;;;11.13;73.62;99732.84;6024201;23;20026;-71
2023/03/25 10:14:36;;;;;;;6.43;4.10;;;;;;;11.37;72.24;99722.41;6116598;23;20554;-71
2023/03/25 10:17:10;;;;;;;5.25;4.90;;;;;;;11.58;72.69;99764.69;6138603;23;20048;-71
2023/03/25 10:19:53;;;;;;;4.30;4.10;;;;;;;11.38;71.76;99713.59;6150335;23;20538;-70
2023/03/25 10:22:27;;;;;;;7.30;3.92;;;;;;;10.80;72.74;99643.31;6110183;23;20048;-70
2023/03/25 10:24:59;;;;;;;4.80;4.47;;;;;;;11.27;73.50;99762.56;6108296;23;20025;-71
2023/03/25 10:27:38;;;;;;;4.35;4.05;;;;;;;11.43;73.49;99762.31;6105353;23;20044;-70
2023/03/25 10:30:08;;;;;;;4.85;4.22;;;;;;;11.60;72.02;99753.22;6137367;23;20086;-70
2023/03/25 10:33:07;;;;;;;4.20;4.00;;;;;;;11.77;71.54;99747.59;6147882;23;20250;-71
2023/03/25 10:35:39;;;;;;;4.55;4.35;;;;;;;11.09;69.88;99599.25;6117651;23;20107;-71
2023/03/25 10:38:17;;;;;;;4.15;3.95;;;;;;;11.56;69.75;99669.34;6108807;23;20036;-72
2023/03/25 10:40:48;;;;;;;4.47;4.07;;;;;;;11.42;69.91;99634.53;6112400;23;20042;-70
2023/03/25 10:43:31;;;;;;;6.35;5.85;;;;;;;10.99;71.54;99672.59;6146725;23;20025;-70
2023/03/25 10:46:20;;;;;;;4.50;4.00;;;;;;;11.21;75.38;99784.00;6135133;23;20301;-70
2023/03/25 10:48:49;;;;;;;4.28;3.92;;;;;;;11.12;74.33;99733.78;6131777;23;20247;-71
2023/03/25 10:51:23;;;;;;;4.20;4.00;;;;;;;11.41;74.00;99762.44;6139179;23;20435;-72
2023/03/25 10:53:51;;;;;;;9.98;4.43;;;;;;;11.63;71.79;99735.47;6120138;23;20490;-71
2023/03/25 10:56:25;;;;;;;4.35;4.15;;;;;;;11.84;70.47;99724.34;6114872;23;20306;-71
2023/03/25 10:58:55;;;;;;;9.32;5.10;;;;;;;11.32;69.14;99589.69;6152227;23;20029;-72
2023/03/25 11:01:39;;;;;;;4.55;4.25;;;;;;;11.14;69.12;99589.25;6112456;23;20013;-70
2023/03/25 11:04:11;;;;;;;4.50;4.18;;;;;;;11.52;68.51;99633.75;6108107;23;20101;-71
2023/03/25 11:06:40;;;;;;;4.75;4.32;;;;;;;11.65;68.33;99644.22;6139916;23;20040;-71
2023/03/25 11:09:06;;;;;;;4.22;4.03;;;;;;;11.77;67.41;99629.31;6150241;23;20510;-72
2023/03/25 11:11:34;;;;;;;4.30;4.10;;;;;;;12.22;67.42;99675.97;6143761;23;20021;-70
2023/03/25 11:14:02;;;;;;;4.97;4.57;;;;;;;12.43;66.62;99636.66;6146986;23;20023;-70
2023/03/25 11:16:36;;;;;;;4.55;4.20;;;;;;;12.16;64.75;99557.13;6144347;23;20029;-70
2023/03/25 11:19:04;;;;;;;4.40;4.18;;;;;;;12.08;65.50;99595.50;6122336;23;20321;-70
2023/03/25 11:21:32;;;;;;;4.30;4.10;;;;;;;12.01;67.10;99612.66;6139854;23;20012;-70
2023/03/25 11:23:59;;;;;;;5.00;4.47;;;;;;;12.18;67.79;99670.09;6120313;23;20013;-71
2023/03/25 11:26:34;;;;;;;4.65;4.30;;;;;;;12.22;67.69;99639.97;6145657;23;20088;-70
2023/03/25 11:29:17;;;;;;;4.85;4.10;;;;;;;11.74;67.61;99603.25;6115444;23;20029;-72
2023/03/25 11:31:55;;;;;;;4.30;4.10;;;;;;;12.14;67.53;99664.22;6138365;23;20020;-72
2023/03/25 11:34:23;;;;;;;7.25;4.30;;;;;;;12.34;67.89;99680.31;6151739;23;20039;-70
2023/03/25 11:36:57;;;;;;;5.03;4.25;;;;;;;11.97;68.33;99654.16;6138468;23;20424;-70
2023/03/25 11:39:29;;;;;;;5.10;4.25;;;;;;;11.88;69.73;99668.78;6113476;23;20217;-70
2023/03/25 11:41:56;;;;;;;4.97;4.55;;;;;;;11.89;69.55;99707.31;6141313;23;20096;-69
2023/03/25 11:44:27;;;;;;;5.18;4.78;;;;;;;11.50;71.29;99701.31;6147290;23;20035;-70
2023/03/25 11:46:58;;;;;;;4.78;4.55;;;;;;;11.36;72.78;99730.38;6141034;23;20028;-70
2023/03/25 11:49:26;;;;;;;6.40;4.90;;;;;;;11.21;73.98;99724.44;6152127;23;20148;-70
2023/03/25 11:52:01;;;;;;;7.03;4.60;;;;;;;11.20;75.79;99769.19;6142356;23;20271;-70
2023/03/25 11:54:28;;;;;;;4.68;4.47;;;;;;;10.91;77.35;99749.25;6146388;23;20021;-70
2023/03/25 11:56:56;;;;;;;6.13;4.68;;;;;;;11.12;77.72;99765.28;6136507;23;20026;-72